sensor_id;sensor_type;location;lat;lon;timestamp;P1;durP1;ratioP1;P2;durP2;ratioP2
12467;SDS011;57850;52.922;6.256;2023-07-29T00:00:42;10.07;;;8.52;;
12467;SDS011;57850;52.922;6.256;2023-07-29T00:03:09;11.02;;;8.88;;
12467;SDS011;57850;52.922;6.256;2023-07-29T00:05:36;10.48;;;8.32;;
12467;SDS011;57850;52.922;6.256;2023-07-29T00:08:03;11.30;;;9.05;;
12467;SDS011;57850;52.922;6.256;2023-07-29T00:10:30;9.68;;;8.38;;
12467;SDS011;57850;52.922;6.256;2023-07-29T00:12:57;10.63;;;8.50;;
12467;SDS011;57850;52.922;6.256;2023-07-29T00:15:26;9.52;;;8.50;;
12467;SDS011;57850;52.922;6.256;2023-07-29T00:17:52;13.20;;;9.43;;
12467;SDS011;57850;52.922;6.256;2023-07-29T00:20:19;9.85;;;8.48;;
12467;SDS011;57850;52.922;6.256;2023-07-29T00:22:45;9.13;;;8.23;;
12467;SDS011;57850;52.922;6.256;2023-07-29T00:25:14;9.70;;;8.00;;
12467;SDS011;57850;52.922;6.256;2023-07-29T00:27:41;10.30;;;8.95;;
12467;SDS011;57850;52.922;6.256;2023-07-29T00:30:08;12.68;;;9.10;;
12467;SDS011;57850;52.922;6.256;2023-07-29T00:32:37;11.75;;;8.95;;
12467;SDS011;57850;52.922;6.256;2023-07-29T00:35:05;11.93;;;9.10;;
12467;SDS011;57850;52.922;6.256;2023-07-29T00:37:33;9.68;;;8.68;;
12467;SDS011;57850;52.922;6.256;2023-07-29T00:39:59;11.32;;;8.25;;
12467;SDS011;57850;52.922;6.256;2023-07-29T00:42:26;10.50;;;8.02;;
12467;SDS011;57850;52.922;6.256;2023-07-29T00:44:52;9.73;;;8.40;;
12467;SDS011;57850;52.922;6.256;2023-07-29T00:47:19;8.82;;;7.75;;
12467;SDS011;57850;52.922;6.256;2023-07-29T00:49:47;9.57;;;8.45;;
12467;SDS011;57850;52.922;6.256;2023-07-29T00:52:14;13.30;;;8.70;;
12467;SDS011;57850;52.922;6.256;2023-07-29T00:54:41;10.25;;;8.40;;
12467;SDS011;57850;52.922;6.256;2023-07-29T00:57:08;8.05;;;7.25;;
12467;SDS011;57850;52.922;6.256;2023-07-29T00:59:38;10.50;;;8.50;;
12467;SDS011;57850;52.922;6.256;2023-07-29T01:02:08;9.20;;;8.18;;
12467;SDS011;57850;52.922;6.256;2023-07-29T01:04:36;11.32;;;8.50;;
12467;SDS011;57850;52.922;6.256;2023-07-29T01:07:06;12.27;;;8.70;;
12467;SDS011;57850;52.922;6.256;2023-07-29T01:09:41;11.18;;;8.32;;
12467;SDS011;57850;52.922;6.256;2023-07-29T01:12:16;11.40;;;9.02;;
12467;SDS011;57850;52.922;6.256;2023-07-29T01:14:49;14.13;;;8.82;;
12467;SDS011;57850;52.922;6.256;2023-07-29T01:17:25;11.15;;;8.93;;
12467;SDS011;57850;52.922;6.256;2023-07-29T01:20:00;11.38;;;8.35;;
12467;SDS011;57850;52.922;6.256;2023-07-29T01:22:33;9.23;;;8.15;;
12467;SDS011;57850;52.922;6.256;2023-07-29T01:25:02;10.48;;;8.52;;
12467;SDS011;57850;52.922;6.256;2023-07-29T01:27:30;9.85;;;7.80;;
12467;SDS011;57850;52.922;6.256;2023-07-29T01:29:57;10.63;;;7.38;;
12467;SDS011;57850;52.922;6.256;2023-07-29T01:32:26;11.65;;;8.52;;
12467;SDS011;57850;52.922;6.256;2023-07-29T01:34:59;10.85;;;8.05;;
12467;SDS011;57850;52.922;6.256;2023-07-29T01:37:30;10.50;;;7.60;;
12467;SDS011;57850;52.922;6.256;2023-07-29T01:39:59;10.48;;;8.02;;
12467;SDS011;57850;52.922;6.256;2023-07-29T01:42:28;8.95;;;7.80;;
12467;SDS011;57850;52.922;6.256;2023-07-29T01:44:55;11.10;;;8.77;;
12467;SDS011;57850;52.922;6.256;2023-07-29T01:47:22;12.93;;;8.35;;
12467;SDS011;57850;52.922;6.256;2023-07-29T01:49:49;12.05;;;8.93;;
12467;SDS011;57850;52.922;6.256;2023-07-29T01:52:16;9.85;;;8.10;;
12467;SDS011;57850;52.922;6.256;2023-07-29T01:54:42;12.20;;;9.52;;
12467;SDS011;57850;52.922;6.256;2023-07-29T01:57:09;12.38;;;8.75;;
12467;SDS011;57850;52.922;6.256;2023-07-29T01:59:37;13.38;;;8.85;;
12467;SDS011;57850;52.922;6.256;2023-07-29T02:02:05;14.45;;;9.00;;
12467;SDS011;57850;52.922;6.256;2023-07-29T02:04:32;10.98;;;8.73;;
12467;SDS011;57850;52.922;6.256;2023-07-29T02:06:59;12.25;;;8.25;;
12467;SDS011;57850;52.922;6.256;2023-07-29T02:09:25;12.68;;;8.52;;
12467;SDS011;57850;52.922;6.256;2023-07-29T02:11:52;11.55;;;8.30;;
12467;SDS011;57850;52.922;6.256;2023-07-29T02:14:19;11.65;;;8.98;;
12467;SDS011;57850;52.922;6.256;2023-07-29T02:16:47;10.43;;;8.18;;
12467;SDS011;57850;52.922;6.256;2023-07-29T02:19:14;12.27;;;8.75;;
12467;SDS011;57850;52.922;6.256;2023-07-29T02:21:41;10.45;;;8.70;;
12467;SDS011;57850;52.922;6.256;2023-07-29T02:24:07;12.82;;;8.43;;
12467;SDS011;57850;52.922;6.256;2023-07-29T02:26:35;11.30;;;7.70;;
12467;SDS011;57850;52.922;6.256;2023-07-29T02:29:01;12.40;;;8.18;;
12467;SDS011;57850;52.922;6.256;2023-07-29T02:31:28;11.63;;;8.27;;
12467;SDS011;57850;52.922;6.256;2023-07-29T02:33:56;15.13;;;8.65;;
12467;SDS011;57850;52.922;6.256;2023-07-29T02:36:23;10.57;;;8.40;;
12467;SDS011;57850;52.922;6.256;2023-07-29T02:38:49;9.95;;;7.38;;
12467;SDS011;57850;52.922;6.256;2023-07-29T02:41:16;10.93;;;7.63;;
12467;SDS011;57850;52.922;6.256;2023-07-29T02:43:42;9.13;;;7.97;;
12467;SDS011;57850;52.922;6.256;2023-07-29T02:46:10;8.10;;;7.03;;
12467;SDS011;57850;52.922;6.256;2023-07-29T02:48:36;10.07;;;7.30;;
12467;SDS011;57850;52.922;6.256;2023-07-29T02:51:04;9.68;;;7.20;;
12467;SDS011;57850;52.922;6.256;2023-07-29T02:53:31;9.13;;;6.78;;
12467;SDS011;57850;52.922;6.256;2023-07-29T02:55:57;7.03;;;6.18;;
12467;SDS011;57850;52.922;6.256;2023-07-29T02:58:24;11.55;;;7.05;;
12467;SDS011;57850;52.922;6.256;2023-07-29T03:00:51;7.45;;;6.55;;
12467;SDS011;57850;52.922;6.256;2023-07-29T03:03:17;7.68;;;6.10;;
12467;SDS011;57850;52.922;6.256;2023-07-29T03:05:44;8.98;;;5.97;;
12467;SDS011;57850;52.922;6.256;2023-07-29T03:08:13;7.88;;;6.05;;
12467;SDS011;57850;52.922;6.256;2023-07-29T03:10:40;8.38;;;5.35;;
12467;SDS011;57850;52.922;6.256;2023-07-29T03:13:07;9.85;;;5.55;;
12467;SDS011;57850;52.922;6.256;2023-07-29T03:15:33;8.82;;;5.70;;
12467;SDS011;57850;52.922;6.256;2023-07-29T03:18:00;8.23;;;5.22;;
12467;SDS011;57850;52.922;6.256;2023-07-29T03:20:26;6.45;;;4.85;;
12467;SDS011;57850;52.922;6.256;2023-07-29T03:22:53;7.80;;;5.60;;
12467;SDS011;57850;52.922;6.256;2023-07-29T03:25:21;6.80;;;5.03;;
12467;SDS011;57850;52.922;6.256;2023-07-29T03:27:48;6.00;;;4.88;;
12467;SDS011;57850;52.922;6.256;2023-07-29T03:30:14;9.73;;;5.35;;
12467;SDS011;57850;52.922;6.256;2023-07-29T03:32:43;5.65;;;4.72;;
12467;SDS011;57850;52.922;6.256;2023-07-29T03:35:10;7.68;;;4.80;;
12467;SDS011;57850;52.922;6.256;2023-07-29T03:37:37;9.20;;;4.93;;
12467;SDS011;57850;52.922;6.256;2023-07-29T03:40:04;9.02;;;4.65;;
12467;SDS011;57850;52.922;6.256;2023-07-29T03:42:33;8.00;;;5.25;;
12467;SDS011;57850;52.922;6.256;2023-07-29T03:44:59;8.15;;;5.15;;
12467;SDS011;57850;52.922;6.256;2023-07-29T03:47:26;7.28;;;4.93;;
12467;SDS011;57850;52.922;6.256;2023-07-29T03:49:53;8.82;;;5.03;;
12467;SDS011;57850;52.922;6.256;2023-07-29T03:52:20;8.43;;;5.28;;
12467;SDS011;57850;52.922;6.256;2023-07-29T03:54:46;6.57;;;5.00;;
12467;SDS011;57850;52.922;6.256;2023-07-29T03:57:13;6.72;;;5.00;;
12467;SDS011;57850;52.922;6.256;2023-07-29T03:59:41;8.55;;;5.60;;
12467;SDS011;57850;52.922;6.256;2023-07-29T04:02:08;7.63;;;5.13;;
12467;SDS011;57850;52.922;6.256;2023-07-29T04:04:36;6.68;;;5.07;;
12467;SDS011;57850;52.922;6.256;2023-07-29T04:07:03;7.47;;;4.65;;
12467;SDS011;57850;52.922;6.256;2023-07-29T04:09:30;5.63;;;4.60;;
12467;SDS011;57850;52.922;6.256;2023-07-29T04:11:57;8.93;;;5.05;;
12467;SDS011;57850;52.922;6.256;2023-07-29T04:14:23;7.93;;;5.45;;
12467;SDS011;57850;52.922;6.256;2023-07-29T04:16:51;5.95;;;5.35;;
12467;SDS011;57850;52.922;6.256;2023-07-29T04:19:18;10.93;;;5.68;;
12467;SDS011;57850;52.922;6.256;2023-07-29T04:21:44;8.13;;;5.15;;
12467;SDS011;57850;52.922;6.256;2023-07-29T04:24:11;5.93;;;4.68;;
12467;SDS011;57850;52.922;6.256;2023-07-29T04:26:37;6.88;;;4.55;;
12467;SDS011;57850;52.922;6.256;2023-07-29T04:29:05;7.93;;;4.40;;
12467;SDS011;57850;52.922;6.256;2023-07-29T04:31:32;7.95;;;5.10;;
12467;SDS011;57850;52.922;6.256;2023-07-29T04:34:00;8.25;;;4.55;;
12467;SDS011;57850;52.922;6.256;2023-07-29T04:36:27;7.18;;;4.47;;
12467;SDS011;57850;52.922;6.256;2023-07-29T04:38:54;5.25;;;4.43;;
12467;SDS011;57850;52.922;6.256;2023-07-29T04:41:21;7.72;;;4.78;;
12467;SDS011;57850;52.922;6.256;2023-07-29T04:43:47;6.32;;;4.75;;
12467;SDS011;57850;52.922;6.256;2023-07-29T04:46:14;6.82;;;4.03;;
12467;SDS011;57850;52.922;6.256;2023-07-29T04:48:41;7.85;;;4.30;;
12467;SDS011;57850;52.922;6.256;2023-07-29T04:51:10;4.72;;;3.42;;
12467;SDS011;57850;52.922;6.256;2023-07-29T04:53:36;4.20;;;3.47;;
12467;SDS011;57850;52.922;6.256;2023-07-29T04:56:03;6.53;;;3.67;;
12467;SDS011;57850;52.922;6.256;2023-07-29T04:58:30;6.20;;;3.38;;
12467;SDS011;57850;52.922;6.256;2023-07-29T05:00:59;7.30;;;3.90;;
12467;SDS011;57850;52.922;6.256;2023-07-29T05:03:26;5.43;;;3.35;;
12467;SDS011;57850;52.922;6.256;2023-07-29T05:05:53;4.50;;;3.58;;
12467;SDS011;57850;52.922;6.256;2023-07-29T05:08:22;6.97;;;4.00;;
12467;SDS011;57850;52.922;6.256;2023-07-29T05:10:49;4.28;;;3.25;;
12467;SDS011;57850;52.922;6.256;2023-07-29T05:13:16;6.95;;;3.05;;
12467;SDS011;57850;52.922;6.256;2023-07-29T05:15:43;4.35;;;2.95;;
12467;SDS011;57850;52.922;6.256;2023-07-29T05:18:10;4.93;;;2.97;;
12467;SDS011;57850;52.922;6.256;2023-07-29T05:20:37;4.03;;;2.97;;
12467;SDS011;57850;52.922;6.256;2023-07-29T05:23:03;5.25;;;3.00;;
12467;SDS011;57850;52.922;6.256;2023-07-29T05:25:31;2.92;;;2.55;;
12467;SDS011;57850;52.922;6.256;2023-07-29T05:27:59;3.40;;;2.63;;
12467;SDS011;57850;52.922;6.256;2023-07-29T05:30:26;4.65;;;3.00;;
12467;SDS011;57850;52.922;6.256;2023-07-29T05:32:55;3.92;;;2.67;;
12467;SDS011;57850;52.922;6.256;2023-07-29T05:35:22;5.80;;;2.75;;
12467;SDS011;57850;52.922;6.256;2023-07-29T05:37:49;4.25;;;2.72;;
12467;SDS011;57850;52.922;6.256;2023-07-29T05:40:16;7.07;;;2.97;;
12467;SDS011;57850;52.922;6.256;2023-07-29T05:42:44;4.40;;;2.70;;
12467;SDS011;57850;52.922;6.256;2023-07-29T05:45:11;3.63;;;2.67;;
12467;SDS011;57850;52.922;6.256;2023-07-29T05:47:37;5.63;;;3.05;;
12467;SDS011;57850;52.922;6.256;2023-07-29T05:50:05;4.15;;;3.00;;
12467;SDS011;57850;52.922;6.256;2023-07-29T05:52:33;5.20;;;3.33;;
12467;SDS011;57850;52.922;6.256;2023-07-29T05:55:00;4.22;;;3.05;;
12467;SDS011;57850;52.922;6.256;2023-07-29T05:57:27;4.93;;;3.00;;
12467;SDS011;57850;52.922;6.256;2023-07-29T05:59:55;6.05;;;3.35;;
12467;SDS011;57850;52.922;6.256;2023-07-29T06:02:22;5.13;;;2.45;;
12467;SDS011;57850;52.922;6.256;2023-07-29T06:04:48;5.60;;;3.58;;
12467;SDS011;57850;52.922;6.256;2023-07-29T06:07:15;7.78;;;3.95;;
12467;SDS011;57850;52.922;6.256;2023-07-29T06:09:41;8.35;;;3.85;;
12467;SDS011;57850;52.922;6.256;2023-07-29T06:12:08;5.90;;;3.63;;
12467;SDS011;57850;52.922;6.256;2023-07-29T06:14:35;5.13;;;3.53;;
12467;SDS011;57850;52.922;6.256;2023-07-29T06:17:03;7.80;;;3.55;;
12467;SDS011;57850;52.922;6.256;2023-07-29T06:19:31;6.07;;;4.20;;
12467;SDS011;57850;52.922;6.256;2023-07-29T06:21:58;7.82;;;3.83;;
12467;SDS011;57850;52.922;6.256;2023-07-29T06:24:26;9.27;;;3.95;;
12467;SDS011;57850;52.922;6.256;2023-07-29T06:26:52;10.52;;;3.88;;
12467;SDS011;57850;52.922;6.256;2023-07-29T06:29:19;8.60;;;3.75;;
12467;SDS011;57850;52.922;6.256;2023-07-29T06:31:46;7.18;;;4.03;;
12467;SDS011;57850;52.922;6.256;2023-07-29T06:34:14;9.48;;;4.07;;
12467;SDS011;57850;52.922;6.256;2023-07-29T06:36:40;5.63;;;3.95;;
12467;SDS011;57850;52.922;6.256;2023-07-29T06:39:07;8.10;;;4.43;;
12467;SDS011;57850;52.922;6.256;2023-07-29T06:41:34;6.13;;;3.40;;
12467;SDS011;57850;52.922;6.256;2023-07-29T06:44:00;7.85;;;4.28;;
12467;SDS011;57850;52.922;6.256;2023-07-29T06:46:27;6.90;;;4.28;;
12467;SDS011;57850;52.922;6.256;2023-07-29T06:48:53;6.47;;;4.28;;
12467;SDS011;57850;52.922;6.256;2023-07-29T06:51:21;8.48;;;4.95;;
12467;SDS011;57850;52.922;6.256;2023-07-29T06:53:48;10.00;;;4.93;;
12467;SDS011;57850;52.922;6.256;2023-07-29T06:56:15;8.90;;;4.03;;
12467;SDS011;57850;52.922;6.256;2023-07-29T06:58:41;7.82;;;4.00;;
12467;SDS011;57850;52.922;6.256;2023-07-29T07:01:08;8.82;;;4.50;;
12467;SDS011;57850;52.922;6.256;2023-07-29T07:03:35;6.85;;;4.15;;
12467;SDS011;57850;52.922;6.256;2023-07-29T07:06:01;10.00;;;4.80;;
12467;SDS011;57850;52.922;6.256;2023-07-29T07:08:29;10.15;;;4.30;;
12467;SDS011;57850;52.922;6.256;2023-07-29T07:10:56;9.00;;;4.47;;
12467;SDS011;57850;52.922;6.256;2023-07-29T07:13:23;9.18;;;4.32;;
12467;SDS011;57850;52.922;6.256;2023-07-29T07:15:49;8.57;;;4.45;;
12467;SDS011;57850;52.922;6.256;2023-07-29T07:18:16;9.90;;;4.95;;
12467;SDS011;57850;52.922;6.256;2023-07-29T07:20:42;6.57;;;3.60;;
12467;SDS011;57850;52.922;6.256;2023-07-29T07:23:09;7.25;;;3.97;;
12467;SDS011;57850;52.922;6.256;2023-07-29T07:25:40;7.93;;;4.35;;
12467;SDS011;57850;52.922;6.256;2023-07-29T07:28:07;10.68;;;4.60;;
12467;SDS011;57850;52.922;6.256;2023-07-29T07:30:34;9.38;;;3.88;;
12467;SDS011;57850;52.922;6.256;2023-07-29T07:33:01;10.52;;;4.32;;
12467;SDS011;57850;52.922;6.256;2023-07-29T07:35:28;8.15;;;4.47;;
12467;SDS011;57850;52.922;6.256;2023-07-29T07:37:54;6.82;;;4.00;;
12467;SDS011;57850;52.922;6.256;2023-07-29T07:40:21;13.45;;;4.50;;
12467;SDS011;57850;52.922;6.256;2023-07-29T07:42:49;6.57;;;4.53;;
12467;SDS011;57850;52.922;6.256;2023-07-29T07:45:15;9.52;;;4.38;;
12467;SDS011;57850;52.922;6.256;2023-07-29T07:47:42;6.13;;;4.57;;
12467;SDS011;57850;52.922;6.256;2023-07-29T07:50:10;8.35;;;4.65;;
12467;SDS011;57850;52.922;6.256;2023-07-29T07:52:36;4.78;;;4.28;;
12467;SDS011;57850;52.922;6.256;2023-07-29T07:55:03;7.75;;;4.90;;
12467;SDS011;57850;52.922;6.256;2023-07-29T07:57:30;7.63;;;4.65;;
12467;SDS011;57850;52.922;6.256;2023-07-29T07:59:58;7.25;;;4.20;;
12467;SDS011;57850;52.922;6.256;2023-07-29T08:02:24;7.05;;;3.90;;
12467;SDS011;57850;52.922;6.256;2023-07-29T08:04:51;6.03;;;3.72;;
12467;SDS011;57850;52.922;6.256;2023-07-29T08:07:18;6.68;;;4.13;;
12467;SDS011;57850;52.922;6.256;2023-07-29T08:09:44;6.75;;;4.07;;
12467;SDS011;57850;52.922;6.256;2023-07-29T08:12:11;5.68;;;4.15;;
12467;SDS011;57850;52.922;6.256;2023-07-29T08:14:37;5.85;;;3.75;;
12467;SDS011;57850;52.922;6.256;2023-07-29T08:17:06;9.98;;;4.65;;
12467;SDS011;57850;52.922;6.256;2023-07-29T08:19:33;6.30;;;3.90;;
12467;SDS011;57850;52.922;6.256;2023-07-29T08:22:01;8.70;;;3.60;;
12467;SDS011;57850;52.922;6.256;2023-07-29T08:24:28;7.90;;;3.78;;
12467;SDS011;57850;52.922;6.256;2023-07-29T08:26:55;8.18;;;3.75;;
12467;SDS011;57850;52.922;6.256;2023-07-29T08:29:21;5.30;;;3.60;;
12467;SDS011;57850;52.922;6.256;2023-07-29T08:31:48;6.45;;;3.55;;
12467;SDS011;57850;52.922;6.256;2023-07-29T08:34:17;6.82;;;3.95;;
12467;SDS011;57850;52.922;6.256;2023-07-29T08:36:44;5.25;;;3.40;;
12467;SDS011;57850;52.922;6.256;2023-07-29T08:39:10;5.22;;;3.40;;
12467;SDS011;57850;52.922;6.256;2023-07-29T08:41:39;7.53;;;3.60;;
12467;SDS011;57850;52.922;6.256;2023-07-29T08:44:12;5.75;;;3.65;;
12467;SDS011;57850;52.922;6.256;2023-07-29T08:46:49;7.05;;;3.83;;
12467;SDS011;57850;52.922;6.256;2023-07-29T08:49:15;5.05;;;3.53;;
12467;SDS011;57850;52.922;6.256;2023-07-29T08:51:44;4.05;;;3.30;;
12467;SDS011;57850;52.922;6.256;2023-07-29T08:54:12;7.47;;;3.63;;
12467;SDS011;57850;52.922;6.256;2023-07-29T08:56:40;4.22;;;3.25;;
12467;SDS011;57850;52.922;6.256;2023-07-29T08:59:07;5.72;;;3.72;;
12467;SDS011;57850;52.922;6.256;2023-07-29T09:01:35;4.43;;;3.20;;
12467;SDS011;57850;52.922;6.256;2023-07-29T09:04:02;3.97;;;3.28;;
12467;SDS011;57850;52.922;6.256;2023-07-29T09:06:31;5.35;;;3.60;;
12467;SDS011;57850;52.922;6.256;2023-07-29T09:08:58;4.72;;;3.22;;
12467;SDS011;57850;52.922;6.256;2023-07-29T09:11:25;4.03;;;3.08;;
12467;SDS011;57850;52.922;6.256;2023-07-29T09:13:52;6.57;;;3.63;;
12467;SDS011;57850;52.922;6.256;2023-07-29T09:16:19;7.82;;;3.30;;
12467;SDS011;57850;52.922;6.256;2023-07-29T09:18:47;6.43;;;3.90;;
12467;SDS011;57850;52.922;6.256;2023-07-29T09:21:15;4.68;;;3.10;;
12467;SDS011;57850;52.922;6.256;2023-07-29T09:23:44;4.82;;;3.30;;
12467;SDS011;57850;52.922;6.256;2023-07-29T09:26:11;6.80;;;3.65;;
12467;SDS011;57850;52.922;6.256;2023-07-29T09:28:38;3.75;;;3.20;;
12467;SDS011;57850;52.922;6.256;2023-07-29T09:31:06;8.35;;;3.47;;
12467;SDS011;57850;52.922;6.256;2023-07-29T09:33:33;5.57;;;3.22;;
12467;SDS011;57850;52.922;6.256;2023-07-29T09:36:02;4.07;;;3.17;;
12467;SDS011;57850;52.922;6.256;2023-07-29T09:38:30;6.38;;;2.97;;
12467;SDS011;57850;52.922;6.256;2023-07-29T09:40:59;4.15;;;3.08;;
12467;SDS011;57850;52.922;6.256;2023-07-29T09:43:25;6.85;;;2.95;;
12467;SDS011;57850;52.922;6.256;2023-07-29T09:45:54;4.43;;;2.95;;
12467;SDS011;57850;52.922;6.256;2023-07-29T09:48:22;6.97;;;2.17;;
12467;SDS011;57850;52.922;6.256;2023-07-29T09:50:49;5.00;;;2.30;;
12467;SDS011;57850;52.922;6.256;2023-07-29T09:53:15;3.90;;;2.30;;
12467;SDS011;57850;52.922;6.256;2023-07-29T09:55:45;5.57;;;2.00;;
12467;SDS011;57850;52.922;6.256;2023-07-29T09:58:14;6.03;;;2.30;;
12467;SDS011;57850;52.922;6.256;2023-07-29T10:00:45;7.35;;;2.33;;
12467;SDS011;57850;52.922;6.256;2023-07-29T10:03:12;4.85;;;2.30;;
12467;SDS011;57850;52.922;6.256;2023-07-29T10:05:40;4.43;;;2.72;;
12467;SDS011;57850;52.922;6.256;2023-07-29T10:08:07;4.30;;;2.15;;
12467;SDS011;57850;52.922;6.256;2023-07-29T10:10:37;13.00;;;2.45;;
12467;SDS011;57850;52.922;6.256;2023-07-29T10:13:03;3.30;;;2.15;;
12467;SDS011;57850;52.922;6.256;2023-07-29T10:15:32;3.80;;;2.25;;
12467;SDS011;57850;52.922;6.256;2023-07-29T10:17:59;3.78;;;2.15;;
12467;SDS011;57850;52.922;6.256;2023-07-29T10:20:27;5.13;;;2.13;;
12467;SDS011;57850;52.922;6.256;2023-07-29T10:22:56;1.80;;;1.70;;
12467;SDS011;57850;52.922;6.256;2023-07-29T10:25:28;3.90;;;1.90;;
12467;SDS011;57850;52.922;6.256;2023-07-29T10:28:02;4.35;;;2.10;;
12467;SDS011;57850;52.922;6.256;2023-07-29T10:30:32;4.35;;;2.30;;
12467;SDS011;57850;52.922;6.256;2023-07-29T10:33:01;3.97;;;1.75;;
12467;SDS011;57850;52.922;6.256;2023-07-29T10:35:29;4.82;;;2.00;;
12467;SDS011;57850;52.922;6.256;2023-07-29T10:37:56;4.45;;;2.50;;
12467;SDS011;57850;52.922;6.256;2023-07-29T10:40:23;2.85;;;1.95;;
12467;SDS011;57850;52.922;6.256;2023-07-29T10:42:59;3.28;;;1.63;;
12467;SDS011;57850;52.922;6.256;2023-07-29T10:45:27;3.50;;;2.10;;
12467;SDS011;57850;52.922;6.256;2023-07-29T10:48:06;2.67;;;1.90;;
12467;SDS011;57850;52.922;6.256;2023-07-29T10:50:34;3.35;;;2.00;;
12467;SDS011;57850;52.922;6.256;2023-07-29T10:53:00;6.25;;;2.10;;
12467;SDS011;57850;52.922;6.256;2023-07-29T10:55:28;3.85;;;2.00;;
12467;SDS011;57850;52.922;6.256;2023-07-29T10:58:06;4.03;;;2.13;;
12467;SDS011;57850;52.922;6.256;2023-07-29T11:00:35;4.93;;;2.15;;
12467;SDS011;57850;52.922;6.256;2023-07-29T11:03:04;3.15;;;1.90;;
12467;SDS011;57850;52.922;6.256;2023-07-29T11:05:41;3.53;;;2.40;;
12467;SDS011;57850;52.922;6.256;2023-07-29T11:08:19;5.45;;;2.20;;
12467;SDS011;57850;52.922;6.256;2023-07-29T11:11:01;4.15;;;2.47;;
12467;SDS011;57850;52.922;6.256;2023-07-29T11:13:30;3.10;;;2.15;;
12467;SDS011;57850;52.922;6.256;2023-07-29T11:15:58;3.20;;;1.95;;
12467;SDS011;57850;52.922;6.256;2023-07-29T11:18:28;6.03;;;2.25;;
12467;SDS011;57850;52.922;6.256;2023-07-29T11:20:56;3.70;;;2.60;;
12467;SDS011;57850;52.922;6.256;2023-07-29T11:23:27;6.43;;;2.80;;
12467;SDS011;57850;52.922;6.256;2023-07-29T11:25:56;4.95;;;2.60;;
12467;SDS011;57850;52.922;6.256;2023-07-29T11:28:23;6.53;;;2.92;;
12467;SDS011;57850;52.922;6.256;2023-07-29T11:30:50;4.63;;;2.60;;
12467;SDS011;57850;52.922;6.256;2023-07-29T11:33:17;4.07;;;2.65;;
12467;SDS011;57850;52.922;6.256;2023-07-29T11:35:47;6.75;;;3.10;;
12467;SDS011;57850;52.922;6.256;2023-07-29T11:38:16;5.03;;;2.42;;
12467;SDS011;57850;52.922;6.256;2023-07-29T11:40:53;3.00;;;2.70;;
12467;SDS011;57850;52.922;6.256;2023-07-29T11:43:20;5.35;;;3.05;;
12467;SDS011;57850;52.922;6.256;2023-07-29T11:45:47;6.10;;;3.30;;
12467;SDS011;57850;52.922;6.256;2023-07-29T11:48:14;5.55;;;3.17;;
12467;SDS011;57850;52.922;6.256;2023-07-29T11:50:40;4.82;;;2.92;;
12467;SDS011;57850;52.922;6.256;2023-07-29T11:53:10;7.55;;;2.97;;
12467;SDS011;57850;52.922;6.256;2023-07-29T11:55:37;5.13;;;2.70;;
12467;SDS011;57850;52.922;6.256;2023-07-29T11:58:04;6.85;;;2.92;;
12467;SDS011;57850;52.922;6.256;2023-07-29T12:00:31;3.47;;;2.40;;
12467;SDS011;57850;52.922;6.256;2023-07-29T12:02:57;5.60;;;2.38;;
12467;SDS011;57850;52.922;6.256;2023-07-29T12:05:24;5.05;;;3.22;;
12467;SDS011;57850;52.922;6.256;2023-07-29T12:07:51;6.40;;;2.55;;
12467;SDS011;57850;52.922;6.256;2023-07-29T12:10:19;5.68;;;2.50;;
12467;SDS011;57850;52.922;6.256;2023-07-29T12:12:47;6.25;;;3.00;;
12467;SDS011;57850;52.922;6.256;2023-07-29T12:15:22;4.57;;;2.70;;
12467;SDS011;57850;52.922;6.256;2023-07-29T12:17:52;4.00;;;2.83;;
12467;SDS011;57850;52.922;6.256;2023-07-29T12:20:19;4.45;;;3.08;;
12467;SDS011;57850;52.922;6.256;2023-07-29T12:22:51;4.90;;;3.00;;
12467;SDS011;57850;52.922;6.256;2023-07-29T12:25:19;9.48;;;3.00;;
12467;SDS011;57850;52.922;6.256;2023-07-29T12:27:46;4.22;;;2.53;;
12467;SDS011;57850;52.922;6.256;2023-07-29T12:30:13;4.20;;;2.40;;
12467;SDS011;57850;52.922;6.256;2023-07-29T12:32:42;4.95;;;2.45;;
12467;SDS011;57850;52.922;6.256;2023-07-29T12:35:10;3.47;;;2.53;;
12467;SDS011;57850;52.922;6.256;2023-07-29T12:37:36;4.50;;;2.50;;
12467;SDS011;57850;52.922;6.256;2023-07-29T12:40:04;3.33;;;2.10;;
12467;SDS011;57850;52.922;6.256;2023-07-29T12:42:32;3.83;;;2.30;;
12467;SDS011;57850;52.922;6.256;2023-07-29T12:44:59;4.53;;;2.50;;
12467;SDS011;57850;52.922;6.256;2023-07-29T12:47:26;4.30;;;2.38;;
12467;SDS011;57850;52.922;6.256;2023-07-29T12:49:52;5.25;;;2.33;;
12467;SDS011;57850;52.922;6.256;2023-07-29T12:52:19;5.43;;;2.33;;
12467;SDS011;57850;52.922;6.256;2023-07-29T12:54:45;2.97;;;1.90;;
12467;SDS011;57850;52.922;6.256;2023-07-29T12:57:12;3.28;;;2.00;;
12467;SDS011;57850;52.922;6.256;2023-07-29T12:59:40;3.47;;;1.92;;
12467;SDS011;57850;52.922;6.256;2023-07-29T13:02:07;2.78;;;1.80;;
12467;SDS011;57850;52.922;6.256;2023-07-29T13:04:33;4.00;;;1.60;;
12467;SDS011;57850;52.922;6.256;2023-07-29T13:07:00;4.18;;;1.80;;
12467;SDS011;57850;52.922;6.256;2023-07-29T13:09:26;2.42;;;1.75;;
12467;SDS011;57850;52.922;6.256;2023-07-29T13:11:53;2.10;;;1.80;;
12467;SDS011;57850;52.922;6.256;2023-07-29T13:14:20;1.85;;;1.65;;
12467;SDS011;57850;52.922;6.256;2023-07-29T13:16:47;3.05;;;1.55;;
12467;SDS011;57850;52.922;6.256;2023-07-29T13:19:14;2.88;;;1.40;;
12467;SDS011;57850;52.922;6.256;2023-07-29T13:21:41;3.05;;;1.48;;
12467;SDS011;57850;52.922;6.256;2023-07-29T13:24:07;1.52;;;1.27;;
12467;SDS011;57850;52.922;6.256;2023-07-29T13:26:34;2.40;;;1.30;;
12467;SDS011;57850;52.922;6.256;2023-07-29T13:29:00;3.25;;;1.63;;
12467;SDS011;57850;52.922;6.256;2023-07-29T13:31:27;2.55;;;1.50;;
12467;SDS011;57850;52.922;6.256;2023-07-29T13:33:55;1.58;;;1.48;;
12467;SDS011;57850;52.922;6.256;2023-07-29T13:36:21;3.55;;;1.55;;
12467;SDS011;57850;52.922;6.256;2023-07-29T13:38:48;1.73;;;1.40;;
12467;SDS011;57850;52.922;6.256;2023-07-29T13:41:15;2.85;;;2.25;;
12467;SDS011;57850;52.922;6.256;2023-07-29T13:43:41;1.95;;;1.73;;
12467;SDS011;57850;52.922;6.256;2023-07-29T13:46:08;5.07;;;1.67;;
12467;SDS011;57850;52.922;6.256;2023-07-29T13:48:35;1.88;;;1.65;;
12467;SDS011;57850;52.922;6.256;2023-07-29T13:51:03;2.03;;;1.45;;
12467;SDS011;57850;52.922;6.256;2023-07-29T13:53:30;3.78;;;1.60;;
12467;SDS011;57850;52.922;6.256;2023-07-29T13:55:57;2.50;;;1.70;;
12467;SDS011;57850;52.922;6.256;2023-07-29T13:58:23;2.35;;;1.70;;
12467;SDS011;57850;52.922;6.256;2023-07-29T14:00:51;3.40;;;1.90;;
12467;SDS011;57850;52.922;6.256;2023-07-29T14:03:17;2.45;;;1.42;;
12467;SDS011;57850;52.922;6.256;2023-07-29T14:05:44;2.63;;;1.30;;
12467;SDS011;57850;52.922;6.256;2023-07-29T14:08:12;1.75;;;1.50;;
12467;SDS011;57850;52.922;6.256;2023-07-29T14:10:38;1.63;;;1.42;;
12467;SDS011;57850;52.922;6.256;2023-07-29T14:13:07;1.35;;;1.25;;
12467;SDS011;57850;52.922;6.256;2023-07-29T14:15:33;2.15;;;1.30;;
12467;SDS011;57850;52.922;6.256;2023-07-29T14:18:00;2.17;;;1.50;;
12467;SDS011;57850;52.922;6.256;2023-07-29T14:20:27;1.73;;;1.48;;
12467;SDS011;57850;52.922;6.256;2023-07-29T14:22:54;2.20;;;1.20;;
12467;SDS011;57850;52.922;6.256;2023-07-29T14:25:22;1.35;;;1.25;;
12467;SDS011;57850;52.922;6.256;2023-07-29T14:27:48;5.50;;;1.50;;
12467;SDS011;57850;52.922;6.256;2023-07-29T14:30:15;1.63;;;1.40;;
12467;SDS011;57850;52.922;6.256;2023-07-29T14:32:42;1.38;;;1.10;;
12467;SDS011;57850;52.922;6.256;2023-07-29T14:35:08;1.70;;;1.20;;
12467;SDS011;57850;52.922;6.256;2023-07-29T14:37:36;2.70;;;1.40;;
12467;SDS011;57850;52.922;6.256;2023-07-29T14:40:03;2.08;;;1.40;;
12467;SDS011;57850;52.922;6.256;2023-07-29T14:42:31;2.25;;;1.27;;
12467;SDS011;57850;52.922;6.256;2023-07-29T14:44:58;2.25;;;1.20;;
12467;SDS011;57850;52.922;6.256;2023-07-29T14:47:24;2.65;;;1.30;;